• Join FlightAware (Why Join?)
  • Login
  • US Flag 
09:21AM EST


 

Airport Tracker/Info


-or-


 

Live Flight TrackerFlight Track Log ✈ N749SS ✈ 06-Sep-2013 ✈ KSNA - KSBA

Flight Track Log - Related Links

Times and Time Zones

All times are in EDT time to prevent confusion due to time zone crossing. See the N749SS flight status page for this flight to view local times or setup timezone preferences in your user account.

Time Position Orientation Groundspeed Altitude Reporting Facility
EDT Latitude Longitude Course Direction KTS MPH feet Rate Location/Type
03:33PM 33.6333 -117.9000 294° West 197 227 2,700  Level Southern California TRACON
03:34PM 33.5667 -117.9000 180° South 255 293 5,000 1,140 Climbing Southern California TRACON
03:35PM 33.5000 -117.9667 220° Southwest 283 326 5,000 960 Level Southern California TRACON
03:36PM 33.4333 -118.0167 212° Southwest 268 308 7,000 2,280 Climbing Southern California TRACON
03:37PM 33.3667 -118.0667 212° Southwest 304 350 9,600 1,500 Climbing Southern California TRACON
03:38PM 33.8819 -118.3988 294° West  Level Estimated
03:38PM 33.3333 -118.1500 244° Southwest 348 400 10,000  Level Southern California TRACON
03:39PM 33.3500 -118.2833 279° West 393 452 10,000  Level Southern California TRACON
03:39PM 33.3611 -118.3239 288° West 384 442 10,000  Level Los Angeles Center
03:40PM 33.4175 -118.4569 297° West 398 458 10,000  Level Los Angeles Center
03:41PM 33.5058 -118.5392 322° Northwest 399 459 10,000  Level Los Angeles Center
03:42PM 33.5383 -118.6642 287° West 392 451 10,000  Level Los Angeles Center
03:43PM 33.5681 -118.7881 286° West 387 445 10,000 300 Level Los Angeles Center
03:49PM 33.8428 -119.3647 300° West 397 457 12,000 300 Climbing Los Angeles Center
03:50PM 33.9308 -119.4497 321° Northwest 407 468 12,000  Level Los Angeles Center
03:51PM 34.0436 -119.5350 328° Northwest 399 459 12,000 60 Level Los Angeles Center
03:51PM 34.0881 -119.5678 329° Northwest 394 453 12,100 -180 Climbing Los Angeles Center
03:51PM 34.1067 -119.5825 327° Northwest 371 427 11,900 -1,020 Descending Los Angeles Center
03:52PM 34.1294 -119.6031 323° Northwest 380 437 11,300 -2,100 Descending Los Angeles Center
03:52PM 34.1850 -119.6428 329° Northwest 320 368 9,800 -2,940 Descending Los Angeles Center
03:53PM 34.2153 -119.6644 329° Northwest 323 372 8,300 -2,100 Descending Los Angeles Center
03:53PM 34.2525 -119.6833 337° Northwest 281 323 7,700 -1,500 Descending Los Angeles Center
03:54PM 34.2794 -119.7022 330° Northwest 283 326 6,800 -1,980 Descending Los Angeles Center
03:54PM 34.3122 -119.7083 351° North 222 255 5,700 -1,680 Descending Los Angeles Center
03:55PM 34.3378 -119.7128 352° North 241 277 5,100 -1,800 Descending Los Angeles Center
03:55PM 34.3703 -119.7075 North 193 222 3,900 -1,860 Descending Los Angeles Center
03:56PM 34.3906 -119.7114 351° North 221 254 3,200 -1,320 Descending Los Angeles Center
03:56PM 34.4111 -119.7256 330° Northwest 161 185 2,600 -1,440 Descending Los Angeles Center
03:57PM 34.4281 -119.7722 294° West 156 180 1,200 -1,140 Descending Los Angeles Center
03:58PM 34.4281 -119.8217 270° West 152 175 400 -840 Descending Los Angeles Center